createdAt,value
2023-02-11T00:01:19.975Z,-3.87
2023-02-11T00:03:46.524Z,-3.96
2023-02-11T00:06:13.102Z,-3.97
2023-02-11T00:08:39.688Z,-3.97
2023-02-11T00:11:06.314Z,-3.96
2023-02-11T00:13:32.773Z,-3.95
2023-02-11T00:15:59.564Z,-3.97
2023-02-11T00:18:26.045Z,-4.08
2023-02-11T00:20:52.498Z,-4.19
2023-02-11T00:23:19.068Z,-4.23
2023-02-11T00:25:45.701Z,-4.27
2023-02-11T00:28:12.648Z,-4.31
2023-02-11T00:30:40.405Z,-4.26
2023-02-11T00:33:08.015Z,-4.27
2023-02-11T00:35:37.242Z,-4.25
2023-02-11T00:38:03.859Z,-4.25
2023-02-11T00:40:31.148Z,-4.23
2023-02-11T00:42:57.571Z,-4.28
2023-02-11T00:45:24.355Z,-4.31
2023-02-11T00:47:50.801Z,-4.31
2023-02-11T00:50:17.262Z,-4.36
2023-02-11T00:52:43.771Z,-4.40
2023-02-11T00:55:10.266Z,-4.41
2023-02-11T00:57:36.961Z,-4.46
2023-02-11T01:00:05.592Z,-4.43
2023-02-11T01:02:32.053Z,-4.41
2023-02-11T01:05:00.104Z,-4.45
2023-02-11T01:07:27.885Z,-4.47
2023-02-11T01:09:54.881Z,-4.51
2023-02-11T01:12:21.425Z,-4.56
2023-02-11T01:14:48.227Z,-4.57
2023-02-11T01:17:14.756Z,-4.61
2023-02-11T01:19:41.563Z,-4.61
2023-02-11T01:22:08.025Z,-4.58
2023-02-11T01:24:34.491Z,-4.59
2023-02-11T01:27:00.964Z,-4.57
2023-02-11T01:29:27.412Z,-4.49
2023-02-11T01:31:54.510Z,-4.50
2023-02-11T01:34:20.990Z,-4.54
2023-02-11T01:36:47.453Z,-4.55
2023-02-11T01:39:13.906Z,-4.53
2023-02-11T01:41:40.407Z,-4.54
2023-02-11T01:44:27.749Z,-4.54
2023-02-11T01:46:54.668Z,-4.55
2023-02-11T01:49:30.360Z,-4.63
2023-02-11T01:52:09.334Z,-4.71
2023-02-11T01:55:01.310Z,-4.79
2023-02-11T01:57:32.325Z,-4.83
2023-02-11T02:00:14.328Z,-4.84
2023-02-11T02:03:08.012Z,-4.83
2023-02-11T02:05:57.533Z,-4.80
2023-02-11T02:08:38.939Z,-4.80
2023-02-11T02:11:05.672Z,-4.87
2023-02-11T02:13:34.296Z,-4.83
2023-02-11T02:16:03.941Z,-4.87
2023-02-11T02:19:03.226Z,-4.90
2023-02-11T02:21:55.359Z,-5.00
2023-02-11T02:24:40.116Z,-4.95
2023-02-11T02:27:23.893Z,-4.96
2023-02-11T02:30:15.530Z,-4.94
2023-02-11T02:32:54.105Z,-5.01
2023-02-11T02:35:29.724Z,-5.11
2023-02-11T02:38:03.005Z,-5.03
2023-02-11T02:40:45.109Z,-5.03
2023-02-11T02:43:13.711Z,-5.02
2023-02-11T02:45:40.247Z,-5.05
2023-02-11T02:48:06.947Z,-5.07
2023-02-11T02:50:36.624Z,-5.04
2023-02-11T02:53:40.800Z,-5.06
2023-02-11T02:56:17.232Z,-5.04
2023-02-11T02:58:57.387Z,-5.05
2023-02-11T03:01:33.173Z,-5.07
2023-02-11T03:04:20.933Z,-5.13
2023-02-11T03:07:22.300Z,-5.14
2023-02-11T03:09:58.322Z,-5.18
2023-02-11T03:12:27.752Z,-5.16
2023-02-11T03:14:54.484Z,-5.12
2023-02-11T03:17:22.808Z,-5.12
2023-02-11T03:19:51.073Z,-5.07
2023-02-11T03:22:24.311Z,-5.08
2023-02-11T03:24:51.139Z,-5.03
2023-02-11T03:27:30.146Z,-5.08
2023-02-11T03:30:09.690Z,-5.02
2023-02-11T03:32:49.775Z,-5.06
2023-02-11T03:35:41.304Z,-5.06
2023-02-11T03:38:15.825Z,-5.09
2023-02-11T03:40:45.564Z,-5.11
2023-02-11T03:43:18.108Z,-5.12
2023-02-11T03:45:47.165Z,-5.16
2023-02-11T03:48:13.630Z,-5.16
2023-02-11T03:50:42.140Z,-5.14
2023-02-11T03:53:10.271Z,-5.14
2023-02-11T03:55:40.656Z,-5.17
2023-02-11T03:58:08.279Z,-5.19
2023-02-11T04:00:39.508Z,-5.11
2023-02-11T04:03:06.963Z,-5.10
2023-02-11T04:05:33.539Z,-5.07
2023-02-11T04:08:00.009Z,-5.08
2023-02-11T04:10:26.537Z,-5.13
2023-02-11T04:12:53.102Z,-5.17
2023-02-11T04:15:19.915Z,-5.19
2023-02-11T04:17:46.370Z,-5.21
2023-02-11T04:20:13.368Z,-5.21
2023-02-11T04:22:39.871Z,-5.22
2023-02-11T04:25:07.215Z,-5.22
2023-02-11T04:27:33.886Z,-5.20
2023-02-11T04:30:00.415Z,-5.19
2023-02-11T04:32:26.885Z,-5.19
2023-02-11T04:34:54.805Z,-5.20
2023-02-11T04:37:21.448Z,-5.19
2023-02-11T04:39:48.007Z,-5.21
2023-02-11T04:42:14.504Z,-5.18
2023-02-11T04:44:40.993Z,-5.17
2023-02-11T04:47:07.455Z,-5.12
2023-02-11T04:49:33.907Z,-5.24
2023-02-11T04:52:00.352Z,-5.26
2023-02-11T04:54:26.826Z,-5.13
2023-02-11T04:56:53.349Z,-5.08
2023-02-11T04:59:19.800Z,-5.11
2023-02-11T05:01:46.286Z,-5.17
2023-02-11T05:04:12.829Z,-5.05
2023-02-11T05:06:39.837Z,-4.99
2023-02-11T05:09:06.599Z,-5.05
2023-02-11T05:11:33.189Z,-5.02
2023-02-11T05:13:59.735Z,-5.01
2023-02-11T05:16:26.206Z,-5.01
2023-02-11T05:18:53.709Z,-4.98
2023-02-11T05:21:20.439Z,-4.97
2023-02-11T05:23:47.330Z,-5.01
2023-02-11T05:26:14.298Z,-5.11
2023-02-11T05:28:41.028Z,-5.09
2023-02-11T05:31:08.182Z,-5.09
2023-02-11T05:33:34.709Z,-5.04
2023-02-11T05:36:07.002Z,-5.01
2023-02-11T05:38:34.052Z,-5.13
2023-02-11T05:41:01.217Z,-5.25
2023-02-11T05:43:28.107Z,-5.31
2023-02-11T05:45:54.911Z,-5.40
2023-02-11T05:48:21.450Z,-5.39
2023-02-11T05:50:47.907Z,-5.39
2023-02-11T05:53:14.404Z,-5.45
2023-02-11T05:55:40.979Z,-5.57
2023-02-11T05:58:07.966Z,-5.53
2023-02-11T06:00:35.116Z,-5.44
2023-02-11T06:03:01.690Z,-5.34
2023-02-11T06:05:28.206Z,-5.30
2023-02-11T06:07:54.660Z,-5.13
2023-02-11T06:10:21.517Z,-5.11
2023-02-11T06:12:48.431Z,-5.07
2023-02-11T06:15:14.910Z,-5.00
2023-02-11T06:17:41.351Z,-4.85
2023-02-11T06:20:10.048Z,-4.74
2023-02-11T06:22:36.602Z,-4.64
2023-02-11T06:25:03.307Z,-4.57
2023-02-11T06:27:29.962Z,-4.49
2023-02-11T06:29:56.452Z,-4.44
2023-02-11T06:32:43.335Z,-4.41
2023-02-11T06:35:11.954Z,-4.33
2023-02-11T06:37:39.370Z,-4.26
2023-02-11T06:40:06.322Z,-4.18
2023-02-11T06:42:32.867Z,-4.12
2023-02-11T06:44:59.336Z,-4.10
2023-02-11T06:47:25.872Z,-4.08
2023-02-11T06:49:52.329Z,-4.12
2023-02-11T06:52:18.847Z,-4.05
2023-02-11T06:54:45.282Z,-4.01
2023-02-11T06:57:11.766Z,-3.90
2023-02-11T06:59:38.223Z,-3.82
2023-02-11T07:02:05.020Z,-3.79
2023-02-11T07:04:31.536Z,-3.80
2023-02-11T07:06:57.989Z,-3.79
2023-02-11T07:09:24.439Z,-3.76
2023-02-11T07:11:50.893Z,-3.66
2023-02-11T07:14:17.450Z,-3.66
2023-02-11T07:16:44.089Z,-3.61
2023-02-11T07:19:10.833Z,-3.45
2023-02-11T07:21:37.387Z,-3.31
2023-02-11T07:24:10.789Z,-3.20
2023-02-11T07:26:37.704Z,-3.12
2023-02-11T07:29:04.204Z,-3.06
2023-02-11T07:31:30.904Z,-2.99
2023-02-11T07:34:00.212Z,-2.90
2023-02-11T07:36:28.068Z,-2.80
2023-02-11T07:38:54.553Z,-2.66
2023-02-11T07:41:23.162Z,-2.60
2023-02-11T07:43:50.241Z,-2.52
2023-02-11T07:46:18.589Z,-2.43
2023-02-11T07:48:45.123Z,-2.34
2023-02-11T07:51:23.798Z,-2.36
2023-02-11T07:53:51.862Z,-2.30
2023-02-11T07:56:20.837Z,-2.18
2023-02-11T07:58:47.652Z,-2.12
2023-02-11T08:01:17.467Z,-2.01
2023-02-11T08:03:44.399Z,-1.84
2023-02-11T08:06:14.541Z,-1.71
2023-02-11T08:08:41.849Z,-1.68
2023-02-11T08:11:11.033Z,-1.56
2023-02-11T08:13:37.567Z,-1.48
2023-02-11T08:16:05.135Z,-1.39
2023-02-11T08:18:33.049Z,-1.37
2023-02-11T08:21:07.237Z,-1.26
2023-02-11T08:23:36.075Z,-1.18
2023-02-11T08:26:10.122Z,-1.12
2023-02-11T08:28:38.915Z,-1.06
2023-02-11T08:31:18.087Z,-1.06
2023-02-11T08:33:44.958Z,-0.96
2023-02-11T08:36:14.781Z,-0.82
2023-02-11T08:38:41.914Z,-0.67
2023-02-11T08:41:09.186Z,-0.54
2023-02-11T08:43:36.778Z,-0.45
2023-02-11T08:46:03.508Z,-0.30
2023-02-11T08:48:30.181Z,-0.23
2023-02-11T08:50:57.546Z,-0.13
2023-02-11T08:53:24.918Z,0.04
2023-02-11T08:55:53.981Z,0.19
2023-02-11T08:58:21.875Z,0.24
2023-02-11T09:00:49.817Z,0.23
2023-02-11T09:03:16.825Z,0.32
2023-02-11T09:05:49.933Z,0.32
2023-02-11T09:08:16.958Z,0.28
2023-02-11T09:10:43.496Z,0.34
2023-02-11T09:13:10.258Z,0.39
2023-02-11T09:15:37.088Z,0.47
2023-02-11T09:18:04.884Z,0.56
2023-02-11T09:20:31.983Z,0.73
2023-02-11T09:22:59.216Z,0.91
2023-02-11T09:25:26.063Z,1.08
2023-02-11T09:27:53.730Z,1.17
2023-02-11T09:30:20.333Z,1.21
2023-02-11T09:32:46.797Z,1.28
2023-02-11T09:35:13.243Z,1.37
2023-02-11T09:37:39.690Z,1.41
2023-02-11T09:40:06.644Z,1.47
2023-02-11T09:42:42.089Z,1.47
2023-02-11T09:45:19.699Z,1.41
2023-02-11T09:47:54.301Z,1.35
2023-02-11T09:50:36.559Z,1.33
2023-02-11T09:53:24.083Z,1.37
2023-02-11T09:55:59.736Z,1.38
2023-02-11T09:58:33.153Z,1.45
2023-02-11T10:01:25.153Z,1.50
2023-02-11T10:03:54.499Z,1.69
2023-02-11T10:06:32.939Z,1.87
2023-02-11T10:09:26.316Z,2.07
2023-02-11T10:12:10.849Z,2.29
2023-02-11T10:15:00.783Z,2.45
2023-02-11T10:17:58.116Z,2.64
2023-02-11T10:20:36.549Z,2.71
2023-02-11T10:23:13.469Z,2.91
2023-02-11T10:25:48.081Z,3.07
2023-02-11T10:28:20.640Z,3.28
2023-02-11T10:31:01.545Z,3.50
2023-02-11T10:33:33.049Z,3.68
2023-02-11T10:35:59.978Z,3.82
2023-02-11T10:38:27.820Z,4.04
2023-02-11T10:40:54.309Z,4.18
2023-02-11T10:43:26.764Z,4.31
2023-02-11T10:45:55.890Z,4.47
2023-02-11T10:48:44.041Z,4.61
2023-02-11T10:51:12.264Z,4.76
2023-02-11T10:53:39.869Z,4.88
2023-02-11T10:56:10.501Z,5.00
2023-02-11T10:58:45.304Z,5.14
2023-02-11T11:01:23.895Z,5.32
2023-02-11T11:03:52.691Z,5.47
2023-02-11T11:06:31.301Z,5.63
2023-02-11T11:08:58.173Z,5.74
2023-02-11T11:11:26.213Z,5.80
2023-02-11T11:13:52.688Z,5.94
2023-02-11T11:16:22.114Z,6.12
2023-02-11T11:18:51.130Z,6.20
2023-02-11T11:21:26.430Z,6.31
2023-02-11T11:24:01.201Z,6.48
2023-02-11T11:26:43.848Z,6.63
2023-02-11T11:29:17.793Z,6.69
2023-02-11T11:31:55.190Z,6.83
2023-02-11T11:34:40.567Z,6.94
2023-02-11T11:37:11.734Z,7.07
2023-02-11T11:39:39.781Z,7.14
2023-02-11T11:42:25.825Z,7.19
2023-02-11T11:45:23.111Z,7.37
2023-02-11T11:48:01.419Z,7.45
2023-02-11T11:50:36.810Z,7.59
2023-02-11T11:53:20.813Z,7.76
2023-02-11T11:56:00.992Z,7.95
2023-02-11T11:58:29.863Z,8.02
2023-02-11T12:01:05.583Z,8.18
2023-02-11T12:04:09.393Z,8.42
2023-02-11T12:06:54.634Z,8.50
2023-02-11T12:09:39.492Z,8.63
2023-02-11T12:12:40.164Z,8.72
2023-02-11T12:15:29.723Z,9.05
2023-02-11T12:18:25.567Z,9.25
2023-02-11T12:21:03.192Z,9.26
2023-02-11T12:23:47.946Z,9.25
2023-02-11T12:26:32.912Z,9.51
2023-02-11T12:29:20.433Z,9.73
2023-02-11T12:32:14.890Z,9.91
2023-02-11T12:35:07.009Z,10.04
2023-02-11T12:37:48.698Z,9.87
2023-02-11T12:40:43.826Z,9.96
2023-02-11T12:43:23.503Z,9.91
2023-02-11T12:46:09.837Z,9.87
2023-02-11T12:48:45.500Z,10.16
2023-02-11T12:51:34.373Z,10.11
2023-02-11T12:54:14.180Z,10.22
2023-02-11T12:56:52.820Z,10.23
2023-02-11T12:59:43.795Z,10.62
2023-02-11T13:02:41.619Z,10.66
2023-02-11T13:05:22.500Z,10.82
2023-02-11T13:07:51.906Z,10.81
2023-02-11T13:10:24.513Z,11.09
2023-02-11T13:13:11.312Z,11.20
2023-02-11T13:15:37.732Z,11.19
2023-02-11T13:18:22.274Z,11.27
2023-02-11T13:21:04.576Z,11.41
2023-02-11T13:23:42.990Z,11.28
2023-02-11T13:26:41.127Z,11.26
2023-02-11T13:29:25.351Z,11.49
2023-02-11T13:31:55.629Z,11.60
2023-02-11T13:34:45.152Z,11.67
2023-02-11T13:37:22.490Z,11.77
2023-02-11T13:40:03.023Z,11.76
2023-02-11T13:42:30.995Z,11.91
2023-02-11T13:44:58.039Z,12.04
2023-02-11T13:47:31.280Z,12.02
2023-02-11T13:49:59.356Z,11.98
2023-02-11T13:52:29.589Z,12.16
2023-02-11T13:55:02.915Z,12.22
2023-02-11T13:57:34.924Z,12.49
2023-02-11T14:00:26.595Z,12.58
2023-02-11T14:03:30.198Z,12.70
2023-02-11T14:06:27.431Z,12.75
2023-02-11T14:09:09.466Z,12.78
2023-02-11T14:11:55.326Z,13.21
2023-02-11T14:14:33.512Z,13.11
2023-02-11T14:17:00.224Z,13.26
2023-02-11T14:19:34.939Z,13.40
2023-02-11T14:22:03.161Z,13.23
2023-02-11T14:24:30.947Z,13.22
2023-02-11T14:27:15.379Z,13.43
2023-02-11T14:30:20.523Z,13.80
2023-02-11T14:33:11.772Z,14.01
2023-02-11T14:35:48.577Z,14.02
2023-02-11T14:38:51.841Z,14.39
2023-02-11T14:41:27.518Z,14.56
2023-02-11T14:43:59.397Z,14.92
2023-02-11T14:46:27.811Z,15.79
2023-02-11T14:48:57.566Z,15.39
2023-02-11T14:51:44.120Z,16.04
2023-02-11T14:54:19.569Z,16.96
2023-02-11T14:56:46.795Z,19.28
2023-02-11T14:59:19.744Z,20.27
2023-02-11T15:01:50.268Z,20.84
2023-02-11T15:04:31.925Z,20.62
2023-02-11T15:07:04.906Z,20.79
2023-02-11T15:09:38.205Z,20.02
2023-02-11T15:12:05.101Z,18.79
2023-02-11T15:14:33.797Z,17.52
2023-02-11T15:17:07.975Z,15.96
2023-02-11T15:19:38.439Z,15.23
2023-02-11T15:22:07.345Z,14.76
2023-02-11T15:24:35.654Z,14.36
2023-02-11T15:27:08.078Z,15.00
2023-02-11T15:29:37.754Z,15.09
2023-02-11T15:32:13.560Z,14.22
2023-02-11T15:34:40.524Z,14.39
2023-02-11T15:37:07.371Z,13.76
2023-02-11T15:39:37.909Z,13.13
2023-02-11T15:42:17.487Z,12.65
2023-02-11T15:44:44.090Z,12.43
2023-02-11T15:47:18.929Z,12.21
2023-02-11T15:49:46.876Z,11.87
2023-02-11T15:52:25.621Z,11.58
2023-02-11T15:54:53.650Z,11.30
2023-02-11T15:57:22.914Z,10.92
2023-02-11T15:59:52.838Z,10.64
2023-02-11T16:02:25.332Z,10.63
2023-02-11T16:04:57.471Z,10.26
2023-02-11T16:07:40.604Z,10.08
2023-02-11T16:10:24.229Z,10.05
2023-02-11T16:13:06.564Z,9.74
2023-02-11T16:15:50.604Z,9.06
2023-02-11T16:18:34.035Z,8.70
2023-02-11T16:21:04.905Z,8.34
2023-02-11T16:23:35.352Z,7.99
2023-02-11T16:26:08.733Z,7.70
2023-02-11T16:28:37.309Z,7.39
2023-02-11T16:31:04.903Z,7.11
2023-02-11T16:33:31.557Z,6.88
2023-02-11T16:36:01.990Z,6.66
2023-02-11T16:38:29.381Z,6.59
2023-02-11T16:40:55.861Z,6.49
2023-02-11T16:43:22.320Z,6.48
2023-02-11T16:45:48.992Z,6.40
2023-02-11T16:48:19.176Z,6.19
2023-02-11T16:50:51.360Z,6.06
2023-02-11T16:53:23.443Z,5.96
2023-02-11T16:55:51.224Z,5.74
2023-02-11T16:58:18.101Z,5.58
2023-02-11T17:00:47.012Z,5.40
2023-02-11T17:03:28.194Z,5.26
2023-02-11T17:05:56.262Z,5.06
2023-02-11T17:08:22.786Z,4.98
2023-02-11T17:10:49.687Z,4.88
2023-02-11T17:13:16.429Z,4.75
2023-02-11T17:15:42.918Z,4.53
2023-02-11T17:18:13.318Z,4.40
2023-02-11T17:20:40.404Z,4.35
2023-02-11T17:23:07.238Z,4.17
2023-02-11T17:25:33.728Z,4.06
2023-02-11T17:28:00.241Z,3.89
2023-02-11T17:30:26.713Z,3.77
2023-02-11T17:32:53.174Z,3.71
2023-02-11T17:35:19.614Z,3.65
2023-02-11T17:37:46.109Z,3.62
2023-02-11T17:40:13.795Z,3.53
2023-02-11T17:42:40.328Z,3.40
2023-02-11T17:45:08.524Z,3.41
2023-02-11T17:47:35.485Z,3.37
2023-02-11T17:50:03.115Z,3.33
2023-02-11T17:52:29.668Z,3.17
2023-02-11T17:54:56.298Z,3.10
2023-02-11T17:57:22.757Z,2.99
2023-02-11T17:59:49.223Z,2.90
2023-02-11T18:02:15.724Z,2.80
2023-02-11T18:04:42.273Z,2.68
2023-02-11T18:07:08.789Z,2.54
2023-02-11T18:09:40.376Z,2.39
2023-02-11T18:12:08.018Z,2.33
2023-02-11T18:14:34.648Z,2.25
2023-02-11T18:17:01.255Z,2.20
2023-02-11T18:19:30.549Z,2.17
2023-02-11T18:22:00.792Z,2.14
2023-02-11T18:24:27.524Z,2.02
2023-02-11T18:26:53.953Z,1.98
2023-02-11T18:29:20.480Z,1.95
2023-02-11T18:31:47.015Z,1.87
2023-02-11T18:34:13.542Z,1.85
2023-02-11T18:36:40.007Z,1.80
2023-02-11T18:39:06.517Z,1.76
2023-02-11T18:41:33.175Z,1.69
2023-02-11T18:44:02.783Z,1.53
2023-02-11T18:46:29.727Z,1.43
2023-02-11T18:48:56.447Z,1.55
2023-02-11T18:51:23.619Z,1.57
2023-02-11T18:53:50.147Z,1.48
2023-02-11T18:56:20.642Z,1.46
2023-02-11T18:58:47.772Z,1.44
2023-02-11T19:01:27.312Z,1.34
2023-02-11T19:03:56.293Z,1.26
2023-02-11T19:06:33.307Z,1.19
2023-02-11T19:09:01.967Z,1.22
2023-02-11T19:11:48.979Z,1.18
2023-02-11T19:14:18.236Z,1.08
2023-02-11T19:16:46.332Z,1.03
2023-02-11T19:19:13.773Z,0.99
2023-02-11T19:21:43.450Z,0.96
2023-02-11T19:24:10.931Z,0.95
2023-02-11T19:26:37.716Z,0.89
2023-02-11T19:29:05.991Z,0.87
2023-02-11T19:31:32.832Z,0.83
2023-02-11T19:34:00.476Z,0.77
2023-02-11T19:36:27.266Z,0.73
2023-02-11T19:38:53.997Z,0.69
2023-02-11T19:41:22.458Z,0.70
2023-02-11T19:43:52.800Z,0.74
2023-02-11T19:46:20.987Z,0.71
2023-02-11T19:48:48.860Z,0.65
2023-02-11T19:51:15.931Z,0.63
2023-02-11T19:53:44.515Z,0.62
2023-02-11T19:56:13.290Z,0.57
2023-02-11T19:58:40.205Z,0.57
2023-02-11T20:01:09.664Z,0.54
2023-02-11T20:03:36.720Z,0.50
2023-02-11T20:06:13.080Z,0.49
2023-02-11T20:08:39.967Z,0.48
2023-02-11T20:11:12.436Z,0.45
2023-02-11T20:13:39.720Z,0.38
2023-02-11T20:16:09.323Z,0.34
2023-02-11T20:18:36.651Z,0.31
2023-02-11T20:21:18.889Z,0.30
2023-02-11T20:23:46.594Z,0.20
2023-02-11T20:26:27.805Z,0.26
2023-02-11T20:28:55.499Z,0.23
2023-02-11T20:31:23.098Z,0.07
2023-02-11T20:33:49.945Z,0.02
2023-02-11T20:36:20.308Z,-0.04
2023-02-11T20:38:46.845Z,-0.01
2023-02-11T20:41:20.168Z,-0.01
2023-02-11T20:43:49.537Z,-0.02
2023-02-11T20:46:17.360Z,-0.12
2023-02-11T20:48:43.882Z,-0.20
2023-02-11T20:51:12.781Z,-0.20
2023-02-11T20:53:41.647Z,-0.15
2023-02-11T20:56:11.269Z,-0.15
2023-02-11T20:58:38.975Z,-0.20
2023-02-11T21:01:16.614Z,-0.31
2023-02-11T21:03:53.749Z,-0.34
2023-02-11T21:06:21.660Z,-0.39
2023-02-11T21:08:48.128Z,-0.37
2023-02-11T21:11:15.065Z,-0.34
2023-02-11T21:13:42.650Z,-0.42
2023-02-11T21:16:13.482Z,-0.40
2023-02-11T21:18:40.008Z,-0.36
2023-02-11T21:21:07.106Z,-0.39
2023-02-11T21:23:33.664Z,-0.47
2023-02-11T21:26:00.141Z,-0.48
2023-02-11T21:28:26.718Z,-0.46
2023-02-11T21:30:54.747Z,-0.48
2023-02-11T21:33:22.409Z,-0.52
2023-02-11T21:35:49.005Z,-0.55
2023-02-11T21:38:16.098Z,-0.62
2023-02-11T21:40:42.597Z,-0.62
2023-02-11T21:43:09.056Z,-0.67
2023-02-11T21:45:35.632Z,-0.68
2023-02-11T21:48:02.157Z,-0.67
2023-02-11T21:50:28.600Z,-0.68
2023-02-11T21:52:55.246Z,-0.79
2023-02-11T21:55:21.705Z,-0.81
2023-02-11T21:57:48.166Z,-0.84
2023-02-11T22:00:15.298Z,-0.84
2023-02-11T22:02:42.384Z,-0.86
2023-02-11T22:05:08.959Z,-0.90
2023-02-11T22:07:36.447Z,-0.87
2023-02-11T22:10:03.966Z,-0.88
2023-02-11T22:12:30.724Z,-0.88
2023-02-11T22:14:57.196Z,-0.85
2023-02-11T22:17:23.745Z,-0.87
2023-02-11T22:19:50.191Z,-0.86
2023-02-11T22:22:18.324Z,-0.89
2023-02-11T22:24:48.433Z,-0.92
2023-02-11T22:27:19.897Z,-1.02
2023-02-11T22:29:46.767Z,-0.95
2023-02-11T22:32:13.439Z,-0.92
2023-02-11T22:34:40.086Z,-0.85
2023-02-11T22:37:07.499Z,-0.80
2023-02-11T22:39:34.155Z,-0.76
2023-02-11T22:42:00.656Z,-0.74
2023-02-11T22:44:27.172Z,-0.68
2023-02-11T22:46:54.139Z,-0.69
2023-02-11T22:49:21.609Z,-0.70
2023-02-11T22:51:48.810Z,-0.73
2023-02-11T22:54:17.761Z,-0.66
2023-02-11T22:56:45.212Z,-0.63
2023-02-11T22:59:14.401Z,-0.60
2023-02-11T23:01:42.099Z,-0.61
2023-02-11T23:04:12.087Z,-0.68
2023-02-11T23:06:38.938Z,-0.70
2023-02-11T23:09:10.092Z,-0.75
2023-02-11T23:11:36.610Z,-0.75
2023-02-11T23:14:03.860Z,-0.76
2023-02-11T23:16:33.592Z,-0.69
2023-02-11T23:19:02.153Z,-0.74
2023-02-11T23:21:31.217Z,-0.80
2023-02-11T23:24:04.208Z,-0.86
2023-02-11T23:26:31.101Z,-0.78
2023-02-11T23:28:59.198Z,-0.72
2023-02-11T23:31:37.437Z,-0.54
2023-02-11T23:34:04.467Z,-0.53
2023-02-11T23:36:31.538Z,-0.56
2023-02-11T23:38:58.679Z,-0.53
2023-02-11T23:41:25.727Z,-0.56
2023-02-11T23:43:54.639Z,-0.45
2023-02-11T23:46:24.371Z,-0.41
2023-02-11T23:48:51.661Z,-0.39
2023-02-11T23:51:19.207Z,-0.32
2023-02-11T23:53:46.231Z,-0.24
2023-02-11T23:56:25.788Z,-0.26
2023-02-11T23:58:54.676Z,-0.25
